createdAt,value
2019-02-27T00:01:03.740Z,45.20
2019-02-27T00:03:31.276Z,45.10
2019-02-27T00:05:58.812Z,45.10
2019-02-27T00:08:26.962Z,45.30
2019-02-27T00:10:55.046Z,45.30
2019-02-27T00:13:24.826Z,45.30
2019-02-27T00:15:51.907Z,45.30
2019-02-27T00:18:23.744Z,45.10
2019-02-27T00:20:48.688Z,45.20
2019-02-27T00:23:16.209Z,45.00
2019-02-27T00:25:43.742Z,45.00
2019-02-27T00:28:11.266Z,44.90
2019-02-27T00:30:38.806Z,44.80
2019-02-27T00:33:06.327Z,44.80
2019-02-27T00:35:33.857Z,44.90
2019-02-27T00:38:01.390Z,44.80
2019-02-27T00:40:28.935Z,44.90
2019-02-27T00:42:56.533Z,45.00
2019-02-27T00:45:24.071Z,45.00
2019-02-27T00:47:53.257Z,45.00
2019-02-27T00:50:20.874Z,44.80
2019-02-27T00:52:50.871Z,44.70
2019-02-27T00:55:17.657Z,44.70
2019-02-27T00:57:45.190Z,44.70
2019-02-27T01:00:16.066Z,44.70
2019-02-27T01:02:43.679Z,44.70
2019-02-27T01:05:11.282Z,44.80
2019-02-27T01:07:38.812Z,44.80
2019-02-27T01:10:12.015Z,44.80
2019-02-27T01:12:37.164Z,44.80
2019-02-27T01:15:07.989Z,44.90
2019-02-27T01:17:35.326Z,45.00
2019-02-27T01:20:03.306Z,45.10
2019-02-27T01:22:30.849Z,45.20
2019-02-27T01:24:58.379Z,45.30
2019-02-27T01:27:25.916Z,45.20
2019-02-27T01:29:53.454Z,45.20
2019-02-27T01:32:21.055Z,45.10
2019-02-27T01:34:48.586Z,45.10
2019-02-27T01:37:16.138Z,45.00
2019-02-27T01:39:44.077Z,45.00
2019-02-27T01:42:12.336Z,44.90
2019-02-27T01:44:43.958Z,44.80
2019-02-27T01:47:10.772Z,44.70
2019-02-27T01:49:38.307Z,44.80
2019-02-27T01:52:06.199Z,45.00
2019-02-27T01:54:33.722Z,44.90
2019-02-27T01:57:02.963Z,45.00
2019-02-27T01:59:30.520Z,44.80
2019-02-27T02:01:58.050Z,44.80
2019-02-27T02:04:25.578Z,44.80
2019-02-27T02:06:53.104Z,44.70
2019-02-27T02:09:30.137Z,44.70
2019-02-27T02:11:57.670Z,44.80
2019-02-27T02:14:45.103Z,44.70
2019-02-27T02:17:14.272Z,44.80
2019-02-27T02:19:46.240Z,44.80
2019-02-27T02:22:15.405Z,44.80
2019-02-27T02:25:01.506Z,44.90
2019-02-27T02:27:30.662Z,45.00
2019-02-27T02:29:59.818Z,45.00
2019-02-27T02:32:34.887Z,44.80
2019-02-27T02:35:16.293Z,44.90
2019-02-27T02:37:48.616Z,44.80
2019-02-27T02:40:33.099Z,44.80
2019-02-27T02:43:05.197Z,44.70
2019-02-27T02:45:37.447Z,44.80
2019-02-27T02:48:09.549Z,44.70
2019-02-27T02:50:41.383Z,44.60
2019-02-27T02:53:10.537Z,44.60
2019-02-27T02:55:49.355Z,44.60
2019-02-27T02:58:18.727Z,44.70
2019-02-27T03:00:47.969Z,44.70
2019-02-27T03:03:17.128Z,44.60
2019-02-27T03:06:02.998Z,44.50
2019-02-27T03:08:32.221Z,44.40
2019-02-27T03:11:01.428Z,44.30
2019-02-27T03:13:41.862Z,44.30
2019-02-27T03:16:10.862Z,44.80
2019-02-27T03:18:40.049Z,44.40
2019-02-27T03:21:09.209Z,44.40
2019-02-27T03:23:50.812Z,44.40
2019-02-27T03:26:30.234Z,44.40
2019-02-27T03:29:16.901Z,44.60
2019-02-27T03:31:57.846Z,44.80
2019-02-27T03:34:19.533Z,44.80
2019-02-27T03:36:57.657Z,44.80
2019-02-27T03:39:34.636Z,44.90
2019-02-27T03:42:00.925Z,44.80
2019-02-27T03:44:38.918Z,44.90
2019-02-27T03:47:15.599Z,44.80
2019-02-27T03:49:44.988Z,44.80
2019-02-27T03:52:19.995Z,44.60
2019-02-27T03:55:06.121Z,44.80
2019-02-27T03:57:40.999Z,44.80
2019-02-27T04:00:19.173Z,44.70
2019-02-27T04:02:56.306Z,44.50
2019-02-27T04:05:28.439Z,44.60
2019-02-27T04:08:15.737Z,44.80
2019-02-27T04:10:43.269Z,44.80
2019-02-27T04:13:10.804Z,44.70
2019-02-27T04:15:38.337Z,44.70
2019-02-27T04:18:05.415Z,44.50
2019-02-27T04:20:32.947Z,44.50
2019-02-27T04:23:00.550Z,44.40
2019-02-27T04:25:31.052Z,44.30
2019-02-27T04:27:57.461Z,44.30
2019-02-27T04:30:25.026Z,44.30
2019-02-27T04:32:52.637Z,44.20
2019-02-27T04:35:20.368Z,44.20
2019-02-27T04:37:48.022Z,44.30
2019-02-27T04:40:15.657Z,44.40
2019-02-27T04:42:43.213Z,44.50
2019-02-27T04:45:12.426Z,44.40
2019-02-27T04:47:40.267Z,44.20
2019-02-27T04:50:10.849Z,44.20
2019-02-27T04:52:37.179Z,44.10
2019-02-27T04:55:05.176Z,44.10
2019-02-27T04:57:33.715Z,44.10
2019-02-27T05:00:01.876Z,44.10
2019-02-27T05:02:29.405Z,44.30
2019-02-27T05:04:57.047Z,44.20
2019-02-27T05:07:24.564Z,44.20
2019-02-27T05:09:52.102Z,44.40
2019-02-27T05:12:19.722Z,44.40
2019-02-27T05:14:47.624Z,44.40
2019-02-27T05:17:15.149Z,44.40
2019-02-27T05:19:42.670Z,44.20
2019-02-27T05:22:10.500Z,44.40
2019-02-27T05:24:40.569Z,44.70
2019-02-27T05:27:07.409Z,44.80
2019-02-27T05:29:35.191Z,44.80
2019-02-27T05:32:04.194Z,44.70
2019-02-27T05:34:32.092Z,44.70
2019-02-27T05:36:59.625Z,44.70
2019-02-27T05:39:27.150Z,45.10
2019-02-27T05:41:54.673Z,45.20
2019-02-27T05:44:22.380Z,45.20
2019-02-27T05:46:50.026Z,45.30
2019-02-27T05:49:17.571Z,45.40
2019-02-27T05:51:45.094Z,45.40
2019-02-27T05:54:12.612Z,45.20
2019-02-27T05:56:40.145Z,45.10
2019-02-27T05:59:07.658Z,45.10
2019-02-27T06:01:37.763Z,44.90
2019-02-27T06:04:04.466Z,45.00
2019-02-27T06:06:32.041Z,45.10
2019-02-27T06:08:59.568Z,44.80
2019-02-27T06:11:29.489Z,44.70
2019-02-27T06:13:56.631Z,44.60
2019-02-27T06:16:24.170Z,45.20
2019-02-27T06:18:56.044Z,44.40
2019-02-27T06:21:21.119Z,44.40
2019-02-27T06:23:48.652Z,45.00
2019-02-27T06:26:16.177Z,44.20
2019-02-27T06:28:43.696Z,44.10
2019-02-27T06:31:11.223Z,44.10
2019-02-27T06:33:38.822Z,44.50
2019-02-27T06:36:07.761Z,43.90
2019-02-27T06:38:35.611Z,44.00
2019-02-27T06:41:03.157Z,43.80
2019-02-27T06:43:31.036Z,43.80
2019-02-27T06:45:58.561Z,43.80
2019-02-27T06:48:26.086Z,43.80
2019-02-27T06:50:53.659Z,43.60
2019-02-27T06:53:21.218Z,43.50
2019-02-27T06:55:49.046Z,43.50
2019-02-27T06:58:16.582Z,43.50
2019-02-27T07:00:44.118Z,43.40
2019-02-27T07:03:11.645Z,43.40
2019-02-27T07:05:39.169Z,43.20
2019-02-27T07:08:06.705Z,43.20
2019-02-27T07:10:34.238Z,43.20
2019-02-27T07:13:01.774Z,43.20
2019-02-27T07:15:29.316Z,43.20
2019-02-27T07:17:56.866Z,43.20
2019-02-27T07:20:25.298Z,43.30
2019-02-27T07:22:53.011Z,43.30
2019-02-27T07:25:21.093Z,43.20
2019-02-27T07:27:48.610Z,43.40
2019-02-27T07:30:19.460Z,43.40
2019-02-27T07:32:47.206Z,43.40
2019-02-27T07:35:15.146Z,43.30
2019-02-27T07:37:47.086Z,43.30
2019-02-27T07:40:16.370Z,43.40
2019-02-27T07:42:43.907Z,43.50
2019-02-27T07:45:18.148Z,43.50
2019-02-27T07:47:45.746Z,43.40
2019-02-27T07:50:14.917Z,43.40
2019-02-27T07:52:42.447Z,43.30
2019-02-27T07:55:21.187Z,43.30
2019-02-27T07:57:40.389Z,43.20
2019-02-27T08:00:09.549Z,43.20
2019-02-27T08:02:37.155Z,43.10
2019-02-27T08:05:06.316Z,43.20
2019-02-27T08:07:33.839Z,43.10
2019-02-27T08:10:04.532Z,43.10
2019-02-27T08:12:30.626Z,43.00
2019-02-27T08:14:59.740Z,42.90
2019-02-27T08:17:27.645Z,43.00
2019-02-27T08:19:55.178Z,43.00
2019-02-27T08:22:24.022Z,43.10
2019-02-27T08:24:51.692Z,43.00
2019-02-27T08:27:19.198Z,43.00
2019-02-27T08:29:46.732Z,43.00
2019-02-27T08:32:14.346Z,43.00
2019-02-27T08:34:42.186Z,43.00
2019-02-27T08:37:09.727Z,43.00
2019-02-27T08:39:37.273Z,43.00
2019-02-27T08:42:04.814Z,43.00
2019-02-27T08:44:32.492Z,43.00
2019-02-27T08:47:00.017Z,43.00
2019-02-27T08:49:27.621Z,43.00
2019-02-27T08:51:55.337Z,43.00
2019-02-27T08:54:22.890Z,43.00
2019-02-27T08:56:50.415Z,43.00
2019-02-27T08:59:18.726Z,43.00
2019-02-27T09:01:49.349Z,42.80
2019-02-27T09:04:16.884Z,43.50
2019-02-27T09:06:44.526Z,42.90
2019-02-27T09:09:12.041Z,42.90
2019-02-27T09:11:40.074Z,43.00
2019-02-27T09:14:08.249Z,42.90
2019-02-27T09:16:35.776Z,42.90
2019-02-27T09:19:03.315Z,42.90
2019-02-27T09:21:30.858Z,43.00
2019-02-27T09:23:58.451Z,42.90
2019-02-27T09:26:25.994Z,43.00
2019-02-27T09:28:53.523Z,43.00
2019-02-27T09:31:21.060Z,43.00
2019-02-27T09:33:53.068Z,43.00
2019-02-27T09:36:17.899Z,43.00
2019-02-27T09:38:45.428Z,43.00
2019-02-27T09:41:13.090Z,43.40
2019-02-27T09:43:40.795Z,43.00
2019-02-27T09:46:08.396Z,43.00
2019-02-27T09:48:35.930Z,43.00
2019-02-27T09:51:03.454Z,43.00
2019-02-27T09:53:30.996Z,43.00
2019-02-27T09:55:58.530Z,43.20
2019-02-27T09:58:26.081Z,43.30
2019-02-27T10:00:59.224Z,43.30
2019-02-27T10:03:24.487Z,43.20
2019-02-27T10:05:52.016Z,43.20
2019-02-27T10:08:19.553Z,43.30
2019-02-27T10:10:47.067Z,43.30
2019-02-27T10:13:14.612Z,43.30
2019-02-27T10:15:42.137Z,43.30
2019-02-27T10:18:09.667Z,43.30
2019-02-27T10:20:37.951Z,43.30
2019-02-27T10:23:05.722Z,43.20
2019-02-27T10:25:33.263Z,43.10
2019-02-27T10:28:04.313Z,43.30
2019-02-27T10:30:30.136Z,43.20
2019-02-27T10:32:57.739Z,43.30
2019-02-27T10:35:26.786Z,43.20
2019-02-27T10:37:54.684Z,43.30
2019-02-27T10:40:23.042Z,44.20
2019-02-27T10:42:51.341Z,43.40
2019-02-27T10:45:19.083Z,43.50
2019-02-27T10:47:46.616Z,43.50
2019-02-27T10:50:14.615Z,43.90
2019-02-27T10:52:42.135Z,44.20
2019-02-27T10:55:16.289Z,44.00
2019-02-27T10:57:43.887Z,43.90
2019-02-27T11:00:13.084Z,43.90
2019-02-27T11:02:40.610Z,43.90
2019-02-27T11:05:08.367Z,43.90
2019-02-27T11:07:35.913Z,43.90
2019-02-27T11:10:04.702Z,43.90
2019-02-27T11:12:32.235Z,43.90
2019-02-27T11:14:59.765Z,43.90
2019-02-27T11:17:27.396Z,43.90
2019-02-27T11:19:54.943Z,43.90
2019-02-27T11:22:22.462Z,43.90
2019-02-27T11:24:50.018Z,44.00
2019-02-27T11:27:17.609Z,43.90
2019-02-27T11:29:45.135Z,44.50
2019-02-27T11:32:12.665Z,43.80
2019-02-27T11:34:40.200Z,43.70
2019-02-27T11:37:12.723Z,43.60
2019-02-27T11:39:36.983Z,43.50
2019-02-27T11:42:04.509Z,43.60
2019-02-27T11:44:32.057Z,43.50
2019-02-27T11:46:59.640Z,43.70
2019-02-27T11:49:27.265Z,43.70
2019-02-27T11:51:56.917Z,43.60
2019-02-27T11:54:24.451Z,43.70
2019-02-27T11:56:56.305Z,43.60
2019-02-27T11:59:21.216Z,43.70
2019-02-27T12:01:48.852Z,43.20
2019-02-27T12:04:19.241Z,43.50
2019-02-27T12:06:45.722Z,43.50
2019-02-27T12:09:13.357Z,43.40
2019-02-27T12:11:40.882Z,42.90
2019-02-27T12:14:09.083Z,43.50
2019-02-27T12:16:37.348Z,43.40
2019-02-27T12:19:06.390Z,43.60
2019-02-27T12:21:34.132Z,43.50
2019-02-27T12:24:01.654Z,43.50
2019-02-27T12:26:29.236Z,43.60
2019-02-27T12:28:56.752Z,43.60
2019-02-27T12:31:24.302Z,43.70
2019-02-27T12:33:51.891Z,43.80
2019-02-27T12:36:19.524Z,43.80
2019-02-27T12:38:47.166Z,43.60
2019-02-27T12:41:14.708Z,43.60
2019-02-27T12:43:42.338Z,43.50
2019-02-27T12:46:09.935Z,43.50
2019-02-27T12:48:37.461Z,43.30
2019-02-27T12:51:05.006Z,43.30
2019-02-27T12:53:32.577Z,43.20
2019-02-27T12:56:00.097Z,43.30
2019-02-27T12:58:27.639Z,43.30
2019-02-27T13:00:55.164Z,43.40
2019-02-27T13:03:22.693Z,43.60
2019-02-27T13:05:50.236Z,43.40
2019-02-27T13:08:18.887Z,43.40
2019-02-27T13:10:48.639Z,43.40
2019-02-27T13:13:16.526Z,43.40
2019-02-27T13:15:44.589Z,43.40
2019-02-27T13:18:12.118Z,43.30
2019-02-27T13:20:46.337Z,43.30
2019-02-27T13:23:13.988Z,43.30
2019-02-27T13:25:41.526Z,43.30
2019-02-27T13:28:09.063Z,43.40
2019-02-27T13:30:41.276Z,43.50
2019-02-27T13:33:05.998Z,43.50
2019-02-27T13:35:33.707Z,43.50
2019-02-27T13:38:01.307Z,43.50
2019-02-27T13:40:29.496Z,43.40
2019-02-27T13:42:57.031Z,43.50
2019-02-27T13:45:26.462Z,43.40
2019-02-27T13:47:54.007Z,43.30
2019-02-27T13:50:23.565Z,43.20
2019-02-27T13:53:07.479Z,43.20
2019-02-27T13:55:51.011Z,43.80
2019-02-27T13:58:35.747Z,43.10
2019-02-27T14:01:18.177Z,43.20
2019-02-27T14:03:52.060Z,43.30
2019-02-27T14:06:24.765Z,43.40
2019-02-27T14:08:59.854Z,43.50
2019-02-27T14:11:30.019Z,43.60
2019-02-27T14:14:00.582Z,43.60
2019-02-27T14:16:41.264Z,43.60
2019-02-27T14:19:18.477Z,43.50
2019-02-27T14:21:53.081Z,43.50
2019-02-27T14:24:35.837Z,43.60
2019-02-27T14:30:03.320Z,43.10
2019-02-27T14:35:20.306Z,43.10
2019-02-27T14:37:50.146Z,43.00
2019-02-27T14:40:20.908Z,43.00
2019-02-27T14:42:53.962Z,43.00
2019-02-27T14:45:19.223Z,43.00
2019-02-27T14:47:47.362Z,43.00
2019-02-27T14:50:16.502Z,43.20
2019-02-27T14:52:47.004Z,43.80
2019-02-27T14:55:15.115Z,43.80
2019-02-27T14:57:42.830Z,43.60
2019-02-27T15:00:15.427Z,43.70
2019-02-27T15:02:43.020Z,43.70
2019-02-27T15:05:10.554Z,43.60
2019-02-27T15:07:38.188Z,43.50
2019-02-27T15:10:08.047Z,43.50
2019-02-27T15:12:35.735Z,43.50
2019-02-27T15:15:03.861Z,43.60
2019-02-27T15:17:32.739Z,43.50
2019-02-27T15:20:04.130Z,43.60
2019-02-27T15:22:29.645Z,43.60
2019-02-27T15:24:57.198Z,44.20
2019-02-27T15:27:25.020Z,43.50
2019-02-27T15:29:53.180Z,43.50
2019-02-27T15:32:20.734Z,43.50
2019-02-27T15:34:48.270Z,43.50
2019-02-27T15:37:15.874Z,43.40
2019-02-27T15:39:44.508Z,43.40
2019-02-27T15:42:12.044Z,44.00
2019-02-27T15:44:39.586Z,43.80
2019-02-27T15:47:07.249Z,43.70
2019-02-27T15:49:35.249Z,43.80
2019-02-27T15:52:06.606Z,43.70
2019-02-27T15:54:32.122Z,43.70
2019-02-27T15:56:59.829Z,43.70
2019-02-27T15:59:27.372Z,43.60
2019-02-27T16:01:54.998Z,43.60
2019-02-27T16:04:22.565Z,43.60
2019-02-27T16:06:51.250Z,43.40
2019-02-27T16:09:18.920Z,43.40
2019-02-27T16:11:48.142Z,43.40
2019-02-27T16:14:15.767Z,43.30
2019-02-27T16:16:43.384Z,43.40
2019-02-27T16:19:11.579Z,43.40
2019-02-27T16:21:39.215Z,43.40
2019-02-27T16:24:09.549Z,43.30
2019-02-27T16:26:36.020Z,43.50
2019-02-27T16:29:03.556Z,43.60
2019-02-27T16:31:31.093Z,43.60
2019-02-27T16:33:59.456Z,43.60
2019-02-27T16:36:36.052Z,43.50
2019-02-27T16:38:56.306Z,43.50
2019-02-27T16:41:27.845Z,43.50
2019-02-27T16:43:53.129Z,43.40
2019-02-27T16:46:20.715Z,43.40
2019-02-27T16:48:48.253Z,43.40
2019-02-27T16:51:15.783Z,43.40
2019-02-27T16:53:43.304Z,43.40
2019-02-27T16:56:11.816Z,43.50
2019-02-27T16:58:40.090Z,43.40
2019-02-27T17:01:07.630Z,43.50
2019-02-27T17:03:38.194Z,43.50
2019-02-27T17:06:05.714Z,43.60
2019-02-27T17:08:35.688Z,43.70
2019-02-27T17:11:02.514Z,43.90
2019-02-27T17:13:30.040Z,43.90
2019-02-27T17:15:57.572Z,44.00
2019-02-27T17:18:28.431Z,43.90
2019-02-27T17:20:54.355Z,43.90
2019-02-27T17:23:21.892Z,44.00
2019-02-27T17:25:49.421Z,43.90
2019-02-27T17:28:16.968Z,43.80
2019-02-27T17:30:44.554Z,44.00
2019-02-27T17:33:12.087Z,43.80
2019-02-27T17:35:39.617Z,43.70
2019-02-27T17:38:07.154Z,43.90
2019-02-27T17:40:37.646Z,43.90
2019-02-27T17:43:04.064Z,43.90
2019-02-27T17:45:31.695Z,44.50
2019-02-27T17:47:59.271Z,43.80
2019-02-27T17:50:31.194Z,43.90
2019-02-27T17:52:56.098Z,43.80
2019-02-27T17:55:23.716Z,43.80
2019-02-27T17:57:51.254Z,43.90
2019-02-27T18:00:22.051Z,43.90
2019-02-27T18:02:49.910Z,43.90
2019-02-27T18:05:17.434Z,43.70
2019-02-27T18:07:44.947Z,43.70
2019-02-27T18:10:13.317Z,44.00
2019-02-27T18:12:40.978Z,44.00
2019-02-27T18:15:13.415Z,44.20
2019-02-27T18:17:40.942Z,44.20
2019-02-27T18:20:08.647Z,44.20
2019-02-27T18:22:36.173Z,44.10
2019-02-27T18:25:04.719Z,44.20
2019-02-27T18:27:33.618Z,44.10
2019-02-27T18:30:01.156Z,44.10
2019-02-27T18:32:28.745Z,44.10
2019-02-27T18:34:57.287Z,44.10
2019-02-27T18:37:24.808Z,44.00
2019-02-27T18:39:52.330Z,44.00
2019-02-27T18:42:20.731Z,44.10
2019-02-27T18:44:48.988Z,44.20
2019-02-27T18:47:16.586Z,44.40
2019-02-27T18:49:44.116Z,44.40
2019-02-27T18:52:11.643Z,44.40
2019-02-27T18:54:39.156Z,44.40
2019-02-27T18:57:06.721Z,44.40
2019-02-27T18:59:34.322Z,44.30
2019-02-27T19:02:01.869Z,44.30
2019-02-27T19:04:29.457Z,44.30
2019-02-27T19:06:56.988Z,44.30
2019-02-27T19:09:24.673Z,44.30
2019-02-27T19:11:52.188Z,44.20
2019-02-27T19:14:19.792Z,44.30
2019-02-27T19:16:47.332Z,44.30
2019-02-27T19:19:18.010Z,44.30
2019-02-27T19:21:45.558Z,44.50
2019-02-27T19:24:13.157Z,44.60
2019-02-27T19:26:44.467Z,44.80
2019-02-27T19:29:12.622Z,44.90
2019-02-27T19:31:40.346Z,44.90
2019-02-27T19:34:10.263Z,44.80
2019-02-27T19:36:37.371Z,44.70
2019-02-27T19:39:05.233Z,44.80
2019-02-27T19:41:38.783Z,44.70
2019-02-27T19:44:02.015Z,44.60
2019-02-27T19:46:29.538Z,44.60
2019-02-27T19:48:57.078Z,44.50
2019-02-27T19:51:24.621Z,44.70
2019-02-27T19:53:52.136Z,44.70
2019-02-27T19:56:19.660Z,44.70
2019-02-27T19:58:48.317Z,44.80
2019-02-27T20:01:16.767Z,44.90
2019-02-27T20:03:44.296Z,44.80
2019-02-27T20:06:11.821Z,44.90
2019-02-27T20:08:44.341Z,45.00
2019-02-27T20:11:08.681Z,44.90
2019-02-27T20:13:36.214Z,44.90
2019-02-27T20:16:03.844Z,44.90
2019-02-27T20:18:31.847Z,44.80
2019-02-27T20:20:59.383Z,44.80
2019-02-27T20:23:26.904Z,44.80
2019-02-27T20:25:56.073Z,44.70
2019-02-27T20:28:23.852Z,44.90
2019-02-27T20:30:51.886Z,45.10
2019-02-27T20:33:19.409Z,45.10
2019-02-27T20:35:46.935Z,45.00
2019-02-27T20:38:15.962Z,45.00
2019-02-27T20:40:43.714Z,44.90
2019-02-27T20:43:11.308Z,44.80
2019-02-27T20:45:40.045Z,44.80
2019-02-27T20:48:08.167Z,44.80
2019-02-27T20:50:36.965Z,44.60
2019-02-27T20:53:05.033Z,44.60
2019-02-27T20:55:32.552Z,44.60
2019-02-27T20:58:00.081Z,44.60
2019-02-27T21:00:27.618Z,44.50
2019-02-27T21:02:55.139Z,44.50
2019-02-27T21:05:22.749Z,44.60
2019-02-27T21:07:50.353Z,44.60
2019-02-27T21:10:22.247Z,44.50
2019-02-27T21:12:53.815Z,44.50
2019-02-27T21:15:19.027Z,44.50
2019-02-27T21:17:46.631Z,44.40
2019-02-27T21:20:14.238Z,44.50
2019-02-27T21:22:41.756Z,44.40
2019-02-27T21:25:12.058Z,44.50
2019-02-27T21:27:39.227Z,44.40
2019-02-27T21:30:17.852Z,44.30
2019-02-27T21:32:43.137Z,44.90
2019-02-27T21:35:10.666Z,44.30
2019-02-27T21:37:38.260Z,44.50
2019-02-27T21:40:07.382Z,44.60
2019-02-27T21:42:35.229Z,44.80
2019-02-27T21:45:03.504Z,45.00
2019-02-27T21:47:32.146Z,45.00
2019-02-27T21:49:59.671Z,44.90
2019-02-27T21:52:27.209Z,44.90
2019-02-27T21:54:55.832Z,44.80
2019-02-27T21:57:25.629Z,44.70
2019-02-27T21:59:52.717Z,44.00
2019-02-27T22:02:20.239Z,44.50
2019-02-27T22:04:47.784Z,44.30
2019-02-27T22:07:15.370Z,44.20
2019-02-27T22:09:44.563Z,44.10
2019-02-27T22:12:12.152Z,44.00
2019-02-27T22:14:39.758Z,44.00
2019-02-27T22:17:07.320Z,44.10
2019-02-27T22:19:34.853Z,44.20
2019-02-27T22:22:05.314Z,44.20
2019-02-27T22:24:31.660Z,44.10
2019-02-27T22:26:59.190Z,44.20
2019-02-27T22:29:27.915Z,44.00
2019-02-27T22:31:56.056Z,44.00
2019-02-27T22:34:23.586Z,44.00
2019-02-27T22:36:51.107Z,44.00
2019-02-27T22:39:18.665Z,43.90
2019-02-27T22:41:46.197Z,44.00
2019-02-27T22:44:13.958Z,44.40
2019-02-27T22:46:41.601Z,43.90
2019-02-27T22:49:09.135Z,43.90
2019-02-27T22:51:36.660Z,43.90
2019-02-27T22:54:04.194Z,44.00
2019-02-27T22:56:31.724Z,43.90
2019-02-27T22:58:59.442Z,43.90
2019-02-27T23:01:30.212Z,43.90
2019-02-27T23:03:58.599Z,43.80
2019-02-27T23:06:26.333Z,43.70
2019-02-27T23:08:54.385Z,43.60
2019-02-27T23:11:22.775Z,43.60
2019-02-27T23:13:50.305Z,43.50
2019-02-27T23:16:18.276Z,43.40
2019-02-27T23:18:45.802Z,43.30
2019-02-27T23:21:13.334Z,43.40
2019-02-27T23:23:40.862Z,43.50
2019-02-27T23:26:08.394Z,43.60
2019-02-27T23:28:35.918Z,43.60
2019-02-27T23:31:03.448Z,44.20
2019-02-27T23:33:35.875Z,43.60
2019-02-27T23:36:00.301Z,43.40
2019-02-27T23:38:27.873Z,43.30
2019-02-27T23:40:55.812Z,43.30
2019-02-27T23:43:23.327Z,43.40
2019-02-27T23:45:50.854Z,43.30
2019-02-27T23:48:18.377Z,43.40
2019-02-27T23:50:45.912Z,43.30
2019-02-27T23:53:15.124Z,43.30
2019-02-27T23:55:44.602Z,43.50
2019-02-27T23:58:11.945Z,43.60
